Time;durP1;ratioP1;P1;durP2;ratioP2;P2;SDS_P1;SDS_P2;PMS_P1;PMS_P2;Temp;Humidity;BMP_temperature;BMP_pressure;BME280_temperature;BME280_humidity;BME280_pressure;Samples;Min_cycle;Max_cycle;Signal;HPM_P1;HPM_P2
2023/10/25 00:01:25;;;;;;;8.02;4.55;;;25.20;99.90;;;;;;5074281;22;20052;-52
2023/10/25 00:03:51;;;;;;;8.30;4.50;;;25.10;99.90;;;;;;5073444;28;20033;-52
2023/10/25 00:06:17;;;;;;;6.40;4.53;;;25.10;99.90;;;;;;5073217;28;20491;-52
2023/10/25 00:08:43;;;;;;;8.63;4.80;;;25.10;99.90;;;;;;5073378;28;20361;-52
2023/10/25 00:11:09;;;;;;;8.00;5.15;;;25.10;99.90;;;;;;5073459;28;20020;-52
2023/10/25 00:13:35;;;;;;;6.22;4.25;;;25.10;99.90;;;;;;5073045;28;20116;-52
2023/10/25 00:16:03;;;;;;;9.02;5.18;;;25.10;99.90;;;;;;5072958;28;20029;-52
2023/10/25 00:18:29;;;;;;;11.68;4.95;;;25.10;99.90;;;;;;5073057;28;20025;-52
2023/10/25 00:20:55;;;;;;;7.43;4.68;;;25.10;99.90;;;;;;5072920;28;20579;-57
2023/10/25 00:23:22;;;;;;;8.00;4.72;;;25.10;99.90;;;;;;5059054;28;20055;-52
2023/10/25 00:25:49;;;;;;;7.88;4.95;;;25.10;99.90;;;;;;5054705;28;20032;-51
2023/10/25 00:28:15;;;;;;;7.70;4.60;;;25.10;99.90;;;;;;5072437;28;20372;-52
2023/10/25 00:30:41;;;;;;;5.70;3.63;;;25.10;99.90;;;;;;5070476;28;20068;-52
2023/10/25 00:33:07;;;;;;;6.70;4.63;;;25.00;99.90;;;;;;5057009;28;20072;-52
2023/10/25 00:35:33;;;;;;;6.78;4.10;;;25.10;99.90;;;;;;5083989;28;20017;-52
2023/10/25 00:37:59;;;;;;;10.00;4.55;;;25.00;99.90;;;;;;5070470;28;20487;-52
2023/10/25 00:40:24;;;;;;;7.97;4.72;;;25.00;99.90;;;;;;5068970;28;20518;-52
2023/10/25 00:42:50;;;;;;;10.85;5.22;;;25.00;99.90;;;;;;5071170;28;20016;-52
2023/10/25 00:45:16;;;;;;;7.05;4.50;;;25.00;99.90;;;;;;5072085;28;20020;-52
2023/10/25 00:47:43;;;;;;;8.02;4.30;;;25.00;99.90;;;;;;5054600;28;20016;-52
2023/10/25 00:50:17;;;;;;;9.10;5.03;;;25.00;99.90;;;;;;5058913;28;20044;-52
2023/10/25 00:52:44;;;;;;;9.07;4.50;;;25.00;99.90;;;;;;5075416;28;20021;-52
2023/10/25 00:55:11;;;;;;;8.85;4.93;;;25.00;99.90;;;;;;5070973;28;20032;-51
2023/10/25 00:57:37;;;;;;;5.47;3.83;;;25.00;99.90;;;;;;5070571;28;20017;-51
2023/10/25 01:00:05;;;;;;;6.35;3.83;;;25.00;99.90;;;;;;5071522;28;20094;-52
2023/10/25 01:02:31;;;;;;;7.60;4.53;;;25.00;99.90;;;;;;5071793;28;20463;-51
2023/10/25 01:04:56;;;;;;;7.55;4.30;;;25.00;99.90;;;;;;5071930;28;20103;-52
2023/10/25 01:07:22;;;;;;;6.05;4.13;;;25.00;99.90;;;;;;5071892;28;20052;-52
2023/10/25 01:09:48;;;;;;;6.80;4.40;;;24.90;99.90;;;;;;5071943;28;20020;-52
2023/10/25 01:12:14;;;;;;;6.50;4.00;;;25.00;99.90;;;;;;5072002;28;20021;-52
2023/10/25 01:14:39;;;;;;;6.90;4.25;;;25.00;99.90;;;;;;5071680;28;20036;-52
2023/10/25 01:17:05;;;;;;;6.32;3.63;;;24.90;99.90;;;;;;5071719;28;20052;-52
2023/10/25 01:19:31;;;;;;;6.53;4.30;;;24.90;99.90;;;;;;5071559;28;20025;-52
2023/10/25 01:21:57;;;;;;;9.18;4.45;;;24.90;99.90;;;;;;5071572;28;20422;-52
2023/10/25 01:24:23;;;;;;;5.53;4.18;;;24.90;99.90;;;;;;5071470;28;20021;-52
2023/10/25 01:26:49;;;;;;;6.28;4.15;;;24.90;99.90;;;;;;5071798;28;20017;-52
2023/10/25 01:29:15;;;;;;;6.68;3.78;;;24.90;99.90;;;;;;5053884;28;20431;-51
2023/10/25 01:31:40;;;;;;;6.75;4.47;;;24.90;99.90;;;;;;5071469;28;20023;-52
2023/10/25 01:34:06;;;;;;;8.52;4.05;;;24.90;99.90;;;;;;5071536;28;20496;-51
2023/10/25 01:36:32;;;;;;;7.32;3.92;;;24.90;99.90;;;;;;5071664;28;20017;-52
2023/10/25 01:38:58;;;;;;;6.57;3.75;;;24.80;99.90;;;;;;5071604;28;20029;-51
2023/10/25 01:41:24;;;;;;;6.53;3.63;;;24.80;99.90;;;;;;5071699;28;20363;-51
2023/10/25 01:43:49;;;;;;;5.88;3.65;;;24.80;99.90;;;;;;5071487;28;20025;-51
2023/10/25 01:46:15;;;;;;;7.47;4.30;;;24.80;99.90;;;;;;5053867;28;20522;-52
2023/10/25 01:48:43;;;;;;;5.43;3.47;;;24.80;99.90;;;;;;5071892;28;20055;-52
2023/10/25 01:51:09;;;;;;;6.45;3.60;;;24.70;99.90;;;;;;5071544;28;20023;-52
2023/10/25 01:53:36;;;;;;;5.30;3.47;;;24.80;99.90;;;;;;5071400;28;20400;-52
2023/10/25 01:56:02;;;;;;;6.35;3.53;;;24.70;99.90;;;;;;5075566;28;20257;-52
2023/10/25 01:58:27;;;;;;;6.82;3.50;;;24.70;99.90;;;;;;5075497;28;20490;-53
2023/10/25 02:00:53;;;;;;;5.32;3.60;;;24.70;99.90;;;;;;5075522;28;20048;-52
2023/10/25 02:03:19;;;;;;;5.65;3.85;;;24.70;99.90;;;;;;5075513;28;20091;-52
2023/10/25 02:05:45;;;;;;;5.00;3.28;;;24.70;99.90;;;;;;5075369;28;20501;-52
2023/10/25 02:08:11;;;;;;;4.97;3.33;;;24.70;99.90;;;;;;5057360;28;20036;-51
2023/10/25 02:10:37;;;;;;;5.47;3.50;;;24.70;99.90;;;;;;5075353;28;20119;-52
2023/10/25 02:13:03;;;;;;;6.20;3.72;;;24.70;99.90;;;;;;5075031;28;20124;-52
2023/10/25 02:15:29;;;;;;;5.40;3.45;;;24.60;99.90;;;;;;5075191;28;20024;-52
2023/10/25 02:17:54;;;;;;;5.03;3.58;;;24.60;99.90;;;;;;5075133;28;20379;-52
2023/10/25 02:20:20;;;;;;;6.05;3.08;;;24.60;99.90;;;;;;5075131;28;20033;-52
2023/10/25 02:22:46;;;;;;;4.95;3.72;;;24.60;99.90;;;;;;5075012;28;20013;-52
2023/10/25 02:25:12;;;;;;;4.78;3.03;;;24.60;99.90;;;;;;5075097;28;20565;-52
2023/10/25 02:27:38;;;;;;;5.32;3.30;;;24.60;99.90;;;;;;5056887;28;20051;-52
2023/10/25 02:30:04;;;;;;;5.85;3.75;;;24.60;99.90;;;;;;5074569;28;20017;-52
2023/10/25 02:32:30;;;;;;;6.30;3.83;;;24.60;99.90;;;;;;5074733;28;20025;-52
2023/10/25 02:34:56;;;;;;;5.10;3.33;;;24.60;99.90;;;;;;5074623;28;20341;-52
2023/10/25 02:37:22;;;;;;;5.57;3.42;;;24.60;99.90;;;;;;5056740;28;20054;-52
2023/10/25 02:39:48;;;;;;;5.28;3.05;;;24.60;99.90;;;;;;5075042;28;20491;-52
2023/10/25 02:42:14;;;;;;;4.78;3.00;;;24.50;99.90;;;;;;5056938;28;20024;-52
2023/10/25 02:44:39;;;;;;;5.80;3.38;;;24.50;99.90;;;;;;5074474;28;20357;-51
2023/10/25 02:47:08;;;;;;;6.30;3.30;;;24.50;99.90;;;;;;5074516;28;20488;-51
2023/10/25 02:49:34;;;;;;;4.78;3.65;;;24.50;99.90;;;;;;5074390;28;20379;-51
2023/10/25 02:51:59;;;;;;;6.72;3.28;;;24.50;99.90;;;;;;5074497;28;20020;-51
2023/10/25 02:54:25;;;;;;;5.60;3.28;;;24.50;99.90;;;;;;5074205;28;20032;-52
2023/10/25 02:56:51;;;;;;;4.75;3.45;;;24.50;99.90;;;;;;5074343;28;20024;-52
2023/10/25 02:59:17;;;;;;;5.35;3.40;;;24.50;99.90;;;;;;5074401;28;20027;-51
2023/10/25 03:01:43;;;;;;;5.32;3.33;;;24.50;99.90;;;;;;5074633;28;20039;-51
2023/10/25 03:04:09;;;;;;;6.57;3.35;;;24.50;99.90;;;;;;5074202;28;20468;-51
2023/10/25 03:06:34;;;;;;;4.65;3.28;;;24.50;99.90;;;;;;5074069;28;20134;-51
2023/10/25 03:09:02;;;;;;;6.03;3.10;;;24.50;99.90;;;;;;5074032;28;20064;-51
2023/10/25 03:11:28;;;;;;;4.72;3.17;;;24.50;99.90;;;;;;5074222;28;20078;-52
2023/10/25 03:13:54;;;;;;;4.13;2.80;;;24.50;99.90;;;;;;5074004;28;20480;-51
2023/10/25 03:16:20;;;;;;;5.82;3.58;;;24.50;99.90;;;;;;5074007;28;20017;-51
2023/10/25 03:18:45;;;;;;;5.28;3.40;;;24.50;99.90;;;;;;5074205;28;20020;-51
2023/10/25 03:21:11;;;;;;;4.35;2.95;;;24.40;99.90;;;;;;5073720;28;20087;-52
2023/10/25 03:23:37;;;;;;;4.93;3.00;;;24.40;99.90;;;;;;5073941;28;20052;-52
2023/10/25 03:26:07;;;;;;;4.70;2.88;;;24.40;99.90;;;;;;5073757;28;20430;-52
2023/10/25 03:28:33;;;;;;;6.05;3.33;;;24.40;99.90;;;;;;5055886;28;20456;-52
2023/10/25 03:31:06;;;;;;;6.88;3.65;;;24.40;99.90;;;;;;5073871;28;20104;-52
2023/10/25 03:33:32;;;;;;;6.03;3.60;;;24.40;99.90;;;;;;5073277;28;20523;-52
2023/10/25 03:35:58;;;;;;;3.83;2.92;;;24.40;99.90;;;;;;5055866;28;20064;-52
2023/10/25 03:38:23;;;;;;;4.50;2.75;;;24.40;99.90;;;;;;5039306;28;20111;-52
2023/10/25 03:41:03;;;;;;;5.57;3.20;;;24.40;99.90;;;;;;5073670;28;20025;-52
2023/10/25 03:43:31;;;;;;;5.47;2.90;;;24.30;99.90;;;;;;5062337;28;20055;-52
2023/10/25 03:46:02;;;;;;;4.07;3.20;;;24.40;99.90;;;;;;5071242;28;20105;-52
2023/10/25 03:48:28;;;;;;;4.85;2.42;;;24.30;99.90;;;;;;5047821;28;20017;-52
2023/10/25 03:50:53;;;;;;;6.68;3.83;;;24.30;99.90;;;;;;5062644;28;20354;-52
2023/10/25 03:53:19;;;;;;;7.30;3.10;;;24.30;99.90;;;;;;5053747;28;20090;-52
2023/10/25 03:55:57;;;;;;;5.20;3.22;;;24.30;99.90;;;;;;5059844;28;20039;-52
2023/10/25 03:58:24;;;;;;;4.10;2.50;;;24.30;99.90;;;;;;5053236;28;20029;-52
2023/10/25 04:00:57;;;;;;;;;;;24.30;99.90;;;;;;5057813;28;20049;-52
2023/10/25 04:03:22;;;;;;;4.75;2.65;;;24.30;99.90;;;;;;5065927;28;19922;-52
2023/10/25 04:05:48;;;;;;;4.93;2.75;;;24.30;99.90;;;;;;5075795;28;20087;-52
2023/10/25 04:08:14;;;;;;;4.32;2.63;;;24.30;99.90;;;;;;5071430;28;20082;-52
2023/10/25 04:10:40;;;;;;;4.55;3.00;;;24.30;99.90;;;;;;5066305;28;20031;-52
2023/10/25 04:13:05;;;;;;;3.50;2.50;;;24.30;99.90;;;;;;5072057;28;20383;-52
2023/10/25 04:15:34;;;;;;;4.65;2.58;;;24.30;99.90;;;;;;5072839;28;20028;-52
2023/10/25 04:18:02;;;;;;;4.72;2.60;;;24.30;99.90;;;;;;5072010;28;20048;-52
2023/10/25 04:20:32;;;;;;;5.60;2.67;;;24.20;99.90;;;;;;5072683;28;20020;-52
2023/10/25 04:22:57;;;;;;;5.03;2.08;;;24.20;99.90;;;;;;5072687;28;20028;-51
2023/10/25 04:25:23;;;;;;;4.13;2.35;;;24.20;99.90;;;;;;5072574;28;20549;-51
2023/10/25 04:27:49;;;;;;;3.35;2.40;;;24.20;99.90;;;;;;5072864;28;20439;-52
2023/10/25 04:30:15;;;;;;;6.05;2.78;;;24.20;99.90;;;;;;5072618;28;20444;-52
2023/10/25 04:32:40;;;;;;;4.75;2.72;;;24.30;99.90;;;;;;5071651;28;20089;-52
2023/10/25 04:35:07;;;;;;;4.38;2.78;;;24.20;99.90;;;;;;5071370;28;20028;-53
2023/10/25 04:37:33;;;;;;;4.88;2.72;;;24.20;99.90;;;;;;5054823;28;20460;-52
2023/10/25 04:39:58;;;;;;;3.67;2.25;;;24.20;99.90;;;;;;5072438;28;20034;-52
2023/10/25 04:42:24;;;;;;;3.55;2.30;;;24.20;99.90;;;;;;5072255;28;20021;-52
2023/10/25 04:44:50;;;;;;;4.00;2.40;;;24.20;99.90;;;;;;5072705;28;20034;-52
2023/10/25 04:47:16;;;;;;;3.47;2.38;;;24.20;99.90;;;;;;5072326;28;20082;-52
2023/10/25 04:49:41;;;;;;;3.47;2.50;;;24.20;99.90;;;;;;5072310;28;20472;-52
2023/10/25 04:52:07;;;;;;;4.93;2.63;;;24.20;99.90;;;;;;5054170;28;20028;-51
2023/10/25 04:54:33;;;;;;;4.45;2.33;;;24.20;99.90;;;;;;5054144;28;20062;-52
2023/10/25 04:56:59;;;;;;;4.53;2.40;;;24.20;99.90;;;;;;5072319;28;20029;-51
2023/10/25 04:59:24;;;;;;;4.13;2.47;;;24.20;99.90;;;;;;5053960;28;20020;-52
2023/10/25 05:01:50;;;;;;;12.40;2.30;;;24.10;99.90;;;;;;5054195;28;20040;-51
2023/10/25 05:04:16;;;;;;;4.70;2.40;;;24.10;99.90;;;;;;5072008;28;20063;-53
2023/10/25 05:06:42;;;;;;;8.60;2.67;;;24.20;99.90;;;;;;5071941;28;20027;-52
2023/10/25 05:09:08;;;;;;;5.80;1.95;;;24.20;99.90;;;;;;5071113;28;20036;-52
2023/10/25 05:11:37;;;;;;;7.43;2.45;;;24.10;99.90;;;;;;5071618;28;20021;-52
2023/10/25 05:14:04;;;;;;;5.53;2.25;;;24.10;99.90;;;;;;5071682;28;20067;-51
2023/10/25 05:16:30;;;;;;;4.88;2.35;;;24.20;99.90;;;;;;5053763;28;20112;-52
2023/10/25 05:18:56;;;;;;;6.03;1.90;;;24.10;99.90;;;;;;5071658;28;20233;-52
2023/10/25 05:21:26;;;;;;;4.18;2.08;;;24.10;99.90;;;;;;5071591;28;20111;-51
2023/10/25 05:23:52;;;;;;;5.28;1.73;;;24.10;99.90;;;;;;5053705;28;20495;-51
2023/10/25 05:26:18;;;;;;;7.03;2.25;;;24.10;99.90;;;;;;5053968;28;20032;-52
2023/10/25 05:28:44;;;;;;;4.85;2.38;;;24.10;99.90;;;;;;5071694;28;20012;-51
2023/10/25 05:31:15;;;;;;;8.38;2.28;;;24.10;99.90;;;;;;5053476;28;20037;-51
2023/10/25 05:33:41;;;;;;;6.68;2.55;;;24.10;99.90;;;;;;5071500;28;20363;-51
2023/10/25 05:36:07;;;;;;;9.10;2.35;;;24.10;99.90;;;;;;5071829;28;20016;-51
2023/10/25 05:38:33;;;;;;;6.93;1.92;;;24.10;99.90;;;;;;5071759;28;20067;-51
2023/10/25 05:41:00;;;;;;;7.03;2.42;;;24.10;99.90;;;;;;5053758;28;20020;-51
2023/10/25 05:43:31;;;;;;;6.18;1.85;;;24.10;99.90;;;;;;5071725;28;20496;-51
2023/10/25 05:45:57;;;;;;;6.57;2.92;;;24.10;99.90;;;;;;5053659;28;20056;-51
2023/10/25 05:48:23;;;;;;;6.28;2.60;;;24.00;99.90;;;;;;5071578;28;20075;-51
2023/10/25 05:50:50;;;;;;;4.90;2.60;;;24.00;99.90;;;;;;5071690;28;20031;-52
2023/10/25 05:53:18;;;;;;;4.70;2.97;;;24.10;99.90;;;;;;5071640;28;20025;-51
2023/10/25 05:55:44;;;;;;;4.20;2.47;;;24.10;99.90;;;;;;5071376;28;20060;-52
2023/10/25 05:58:10;;;;;;;4.55;3.17;;;24.00;99.90;;;;;;5071505;28;20025;-52
2023/10/25 06:00:37;;;;;;;4.13;2.45;;;24.00;99.90;;;;;;5071213;28;20104;-52
2023/10/25 06:03:02;;;;;;;6.80;2.80;;;24.00;99.90;;;;;;5071633;28;20017;-52
2023/10/25 06:05:34;;;;;;;4.75;3.15;;;24.00;99.90;;;;;;5053566;28;20485;-52
2023/10/25 06:08:00;;;;;;;6.82;3.10;;;24.00;99.90;;;;;;5071249;28;20037;-52
2023/10/25 06:10:26;;;;;;;8.73;3.00;;;24.00;99.90;;;;;;5071405;28;20025;-52
2023/10/25 06:12:52;;;;;;;7.63;3.03;;;24.00;99.90;;;;;;5053536;28;20027;-53
2023/10/25 06:15:18;;;;;;;6.15;3.13;;;24.00;99.90;;;;;;5053446;28;20033;-52
2023/10/25 06:17:44;;;;;;;7.63;3.00;;;24.00;99.90;;;;;;5071101;28;20496;-52
2023/10/25 06:20:11;;;;;;;6.40;3.10;;;24.00;99.90;;;;;;5071203;28;20069;-53
2023/10/25 06:22:37;;;;;;;8.52;3.17;;;24.00;99.90;;;;;;5071389;28;20391;-52
2023/10/25 06:25:05;;;;;;;14.45;3.47;;;24.00;99.90;;;;;;5071205;28;20016;-52
2023/10/25 06:27:30;;;;;;;5.82;2.72;;;23.90;99.90;;;;;;5071219;28;20025;-52
2023/10/25 06:29:56;;;;;;;5.43;2.70;;;23.90;99.90;;;;;;5071153;28;20368;-52
2023/10/25 06:32:22;;;;;;;5.60;2.78;;;23.90;99.90;;;;;;5071120;28;20047;-52
2023/10/25 06:34:48;;;;;;;6.97;3.35;;;23.90;99.90;;;;;;5071336;28;20451;-52
2023/10/25 06:37:14;;;;;;;7.15;3.17;;;23.90;99.90;;;;;;5070992;28;20096;-53
2023/10/25 06:39:40;;;;;;;5.85;2.97;;;23.90;99.90;;;;;;5071108;28;20024;-52
2023/10/25 06:42:06;;;;;;;5.85;2.75;;;23.90;99.90;;;;;;5074571;28;20042;-52
2023/10/25 06:44:33;;;;;;;7.45;2.88;;;23.90;99.90;;;;;;5074662;28;20020;-52
2023/10/25 06:46:59;;;;;;;6.63;2.70;;;23.90;99.90;;;;;;5056787;28;20024;-52
2023/10/25 06:49:25;;;;;;;7.25;2.70;;;23.90;99.90;;;;;;5074619;28;20371;-52
2023/10/25 06:51:51;;;;;;;5.00;2.63;;;23.90;99.90;;;;;;5074852;28;20017;-52
2023/10/25 06:54:16;;;;;;;6.47;3.30;;;23.90;99.90;;;;;;5074415;28;20024;-52
2023/10/25 06:56:42;;;;;;;5.32;3.33;;;23.90;99.90;;;;;;5074323;28;20028;-52
2023/10/25 06:59:09;;;;;;;5.93;2.72;;;23.90;99.90;;;;;;5074276;28;20048;-53
2023/10/25 07:01:41;;;;;;;7.28;2.95;;;23.90;99.90;;;;;;5074219;28;20515;-52
2023/10/25 07:04:12;;;;;;;7.10;2.97;;;23.90;99.90;;;;;;5074102;28;20016;-52
2023/10/25 07:06:39;;;;;;;5.60;2.60;;;23.90;99.90;;;;;;5074274;28;20021;-52
2023/10/25 07:09:05;;;;;;;5.45;2.70;;;23.90;99.90;;;;;;5062197;28;20075;-52
2023/10/25 07:11:31;;;;;;;3.97;2.22;;;23.90;99.90;;;;;;5048424;28;20365;-52
2023/10/25 07:13:57;;;;;;;5.53;2.50;;;23.90;99.90;;;;;;5062006;28;20032;-52
2023/10/25 07:16:22;;;;;;;6.18;2.60;;;23.90;99.90;;;;;;5065914;28;20016;-52
2023/10/25 07:18:49;;;;;;;3.67;2.30;;;23.90;99.90;;;;;;5057166;28;20021;-53
2023/10/25 07:21:15;;;;;;;4.38;2.55;;;23.90;99.90;;;;;;5057324;28;20017;-52
2023/10/25 07:23:40;;;;;;;6.38;2.80;;;24.00;99.90;;;;;;5054696;28;20067;-52
2023/10/25 07:26:06;;;;;;;4.78;2.38;;;24.00;99.90;;;;;;5054487;28;20025;-52
2023/10/25 07:28:32;;;;;;;4.65;3.03;;;24.00;99.90;;;;;;5058242;28;20035;-52
2023/10/25 07:30:58;;;;;;;4.68;2.30;;;24.00;99.90;;;;;;5055210;28;20542;-52
2023/10/25 07:33:24;;;;;;;3.67;2.40;;;24.00;99.90;;;;;;5061634;28;20042;-52
2023/10/25 07:35:50;;;;;;;5.13;2.40;;;24.10;99.90;;;;;;5072594;28;20025;-52
2023/10/25 07:38:16;;;;;;;7.00;2.20;;;24.10;99.90;;;;;;5072395;28;20016;-52
2023/10/25 07:40:42;;;;;;;4.50;2.30;;;24.10;99.90;;;;;;5073242;28;20553;-52
2023/10/25 07:43:09;;;;;;;3.15;2.05;;;24.10;99.90;;;;;;5073667;28;20017;-52
2023/10/25 07:45:34;;;;;;;5.70;2.03;;;24.20;99.90;;;;;;5073398;28;20028;-52
2023/10/25 07:48:00;;;;;;;4.28;2.00;;;24.10;99.90;;;;;;5073550;28;20377;-52
2023/10/25 07:50:26;;;;;;;8.15;2.83;;;24.20;99.90;;;;;;5072297;28;20468;-52
2023/10/25 07:52:52;;;;;;;6.05;2.40;;;24.30;99.90;;;;;;5072263;28;20441;-52
2023/10/25 07:55:18;;;;;;;4.13;2.20;;;24.30;99.90;;;;;;5073464;28;20074;-52
2023/10/25 07:57:43;;;;;;;2.83;1.38;;;24.30;99.90;;;;;;5073208;28;20043;-52
2023/10/25 08:00:09;;;;;;;5.28;2.20;;;24.30;99.90;;;;;;5073080;28;20025;-53
2023/10/25 08:02:35;;;;;;;4.22;1.88;;;24.30;99.90;;;;;;5054821;28;20116;-51
2023/10/25 08:05:01;;;;;;;4.38;1.77;;;24.30;99.90;;;;;;5073006;28;20028;-52
2023/10/25 08:07:29;;;;;;;3.90;1.88;;;24.40;99.90;;;;;;5054836;28;20114;-52
2023/10/25 08:09:55;;;;;;;3.70;1.70;;;24.40;99.90;;;;;;5072993;28;20349;-54
2023/10/25 08:12:21;;;;;;;3.67;2.13;;;24.40;99.90;;;;;;5073109;28;20031;-52
2023/10/25 08:14:47;;;;;;;2.95;1.70;;;24.40;99.90;;;;;;5072913;28;20068;-53
2023/10/25 08:17:12;;;;;;;3.75;2.10;;;24.50;99.90;;;;;;5072884;28;20028;-52
2023/10/25 08:19:38;;;;;;;4.40;2.15;;;24.50;99.90;;;;;;5072611;28;20439;-53
2023/10/25 08:22:08;;;;;;;4.95;2.15;;;24.50;99.90;;;;;;5072591;28;20039;-53
2023/10/25 08:24:34;;;;;;;4.60;1.85;;;24.50;99.90;;;;;;5072448;28;20066;-54
2023/10/25 08:27:00;;;;;;;2.22;1.88;;;24.50;99.90;;;;;;5072779;28;20024;-53
2023/10/25 08:29:26;;;;;;;4.25;2.10;;;24.60;99.90;;;;;;5072239;28;20047;-53
2023/10/25 08:31:52;;;;;;;4.22;2.05;;;24.60;99.90;;;;;;5054501;28;20108;-53
2023/10/25 08:34:18;;;;;;;3.63;1.90;;;24.60;99.90;;;;;;5054655;28;20419;-53
2023/10/25 08:36:44;;;;;;;5.07;1.90;;;24.60;99.90;;;;;;5072273;28;20035;-53
2023/10/25 08:39:10;;;;;;;4.13;2.40;;;24.70;99.90;;;;;;5072308;28;20028;-53
2023/10/25 08:41:37;;;;;;;2.55;1.67;;;24.70;99.90;;;;;;5072130;28;20017;-52
2023/10/25 08:44:03;;;;;;;;;;;24.70;99.90;;;;;;5072461;28;20476;-53
2023/10/25 08:46:32;;;;;;;3.28;1.50;;;24.70;99.90;;;;;;5072195;28;19904;-53
2023/10/25 08:48:58;;;;;;;3.08;1.95;;;24.70;99.90;;;;;;5072183;28;20380;-53
2023/10/25 08:51:24;;;;;;;4.18;1.50;;;24.70;99.90;;;;;;5072113;28;20028;-53
2023/10/25 08:53:52;;;;;;;8.38;2.00;;;24.80;99.90;;;;;;5072241;28;20033;-53
2023/10/25 08:56:18;;;;;;;2.60;1.42;;;24.80;99.90;;;;;;5072424;28;20364;-53
2023/10/25 08:58:44;;;;;;;3.78;1.77;;;24.80;99.90;;;;;;5072109;28;20435;-53
2023/10/25 09:01:10;;;;;;;3.65;1.58;;;24.80;99.90;;;;;;5071665;28;20067;-53
2023/10/25 09:03:39;;;;;;;4.30;2.03;;;24.90;99.90;;;;;;5071729;28;20480;-53
2023/10/25 09:06:07;;;;;;;5.30;2.17;;;24.90;99.90;;;;;;5071958;28;20376;-53
2023/10/25 09:08:34;;;;;;;3.67;1.50;;;25.00;99.90;;;;;;5071993;28;20021;-53
2023/10/25 09:11:08;;;;;;;4.10;1.67;;;24.90;99.90;;;;;;5053852;28;20043;-52
2023/10/25 09:13:37;;;;;;;3.10;1.40;;;25.00;99.90;;;;;;5071807;28;20025;-52
2023/10/25 09:16:09;;;;;;;3.25;1.52;;;25.00;99.90;;;;;;5071672;28;20453;-53
2023/10/25 09:18:36;;;;;;;3.55;1.80;;;25.00;99.90;;;;;;5071825;28;20016;-52
2023/10/25 09:21:04;;;;;;;2.60;1.60;;;25.00;99.90;;;;;;5071444;28;20032;-52
2023/10/25 09:23:31;;;;;;;4.03;1.77;;;25.00;99.90;;;;;;5071780;28;20523;-52
2023/10/25 09:25:58;;;;;;;4.03;1.38;;;25.10;99.90;;;;;;5071827;28;20021;-52
2023/10/25 09:28:29;;;;;;;3.95;1.70;;;25.10;99.90;;;;;;5071622;28;20441;-52
2023/10/25 09:30:55;;;;;;;4.47;1.25;;;25.10;99.90;;;;;;5053656;28;20024;-52
2023/10/25 09:33:22;;;;;;;3.75;1.70;;;25.20;99.90;;;;;;5071384;28;20017;-52
2023/10/25 09:35:49;;;;;;;3.10;1.35;;;25.20;99.90;;;;;;5071984;28;20065;-53
2023/10/25 09:38:15;;;;;;;6.28;1.75;;;25.20;99.90;;;;;;5071555;28;20031;-52
2023/10/25 09:40:44;;;;;;;2.67;1.30;;;25.30;99.90;;;;;;5053713;28;20028;-52
2023/10/25 09:43:15;;;;;;;2.67;1.33;;;25.30;99.90;;;;;;5071574;28;20024;-52
2023/10/25 09:45:43;;;;;;;1.17;1.00;;;25.30;99.90;;;;;;5071506;28;20380;-52
2023/10/25 09:48:11;;;;;;;;;;;25.30;99.90;;;;;;5054450;28;20024;-53
2023/10/25 09:50:41;;;;;;;2.63;1.20;;;25.30;99.90;;;;;;5071653;28;19963;-51
2023/10/25 09:53:51;;;;;;;2.25;1.25;;;25.30;99.90;;;;;;5071423;28;20028;-51
2023/10/25 09:56:18;;;;;;;2.25;1.17;;;25.30;99.90;;;;;;5043158;28;20047;-53
2023/10/25 09:58:46;;;;;;;2.75;1.05;;;25.30;99.90;;;;;;5071479;28;20016;-52
2023/10/25 10:01:11;;;;;;;;;;;25.30;99.90;;;;;;5071517;28;20059;-51
2023/10/25 10:03:52;;;;;;;4.05;1.17;;;25.30;99.90;;;;;;5071243;28;19909;-52
2023/10/25 10:06:31;;;;;;;1.98;1.25;;;25.30;99.90;;;;;;5071254;28;20024;-52
2023/10/25 10:09:14;;;;;;;3.65;1.08;;;25.30;99.90;;;;;;5071347;28;20029;-52
2023/10/25 10:11:47;;;;;;;2.03;0.90;;;25.30;99.90;;;;;;5071408;28;20028;-52
2023/10/25 10:14:33;;;;;;;2.33;1.25;;;25.30;99.90;;;;;;5070993;28;20430;-51
2023/10/25 10:17:09;;;;;;;1.75;0.80;;;25.30;99.90;;;;;;5075074;28;20021;-51
2023/10/25 10:19:46;;;;;;;2.00;1.55;;;25.30;99.90;;;;;;5074925;28;20024;-52
2023/10/25 10:22:13;;;;;;;3.58;1.17;;;25.30;99.90;;;;;;5074938;28;20445;-52
2023/10/25 10:24:41;;;;;;;;;;;25.40;99.90;;;;;;5075317;28;20107;-52
2023/10/25 10:27:09;;;;;;;2.05;1.05;;;25.40;99.90;;;;;;5074928;28;19904;-52
2023/10/25 10:29:34;;;;;;;2.83;1.15;;;25.40;99.90;;;;;;5075299;28;20028;-51
2023/10/25 10:32:02;;;;;;;3.72;1.20;;;25.40;99.90;;;;;;5075005;28;20373;-52
2023/10/25 10:34:42;;;;;;;6.30;1.40;;;25.40;99.90;;;;;;5074567;28;20037;-52
2023/10/25 10:37:10;;;;;;;1.95;1.02;;;25.50;99.90;;;;;;5074687;28;20020;-53
2023/10/25 10:39:56;;;;;;;1.77;0.88;;;25.50;99.90;;;;;;5074900;28;20025;-52
2023/10/25 10:42:32;;;;;;;1.40;1.05;;;25.50;99.90;;;;;;5074009;28;20027;-52
2023/10/25 10:44:59;;;;;;;4.28;1.35;;;25.50;99.90;;;;;;5074444;28;20064;-53
2023/10/25 10:47:51;;;;;;;3.63;1.27;;;25.50;99.90;;;;;;5074407;28;20032;-51
2023/10/25 10:50:24;;;;;;;2.80;1.20;;;25.50;99.90;;;;;;5074600;28;20115;-52
2023/10/25 10:52:51;;;;;;;4.38;1.13;;;25.50;99.90;;;;;;5061470;28;20021;-52
2023/10/25 10:55:20;;;;;;;2.40;1.10;;;25.50;99.90;;;;;;5074514;28;20089;-52
2023/10/25 10:57:46;;;;;;;5.40;1.10;;;25.50;99.90;;;;;;5073815;28;20021;-52
2023/10/25 11:00:16;;;;;;;6.28;1.42;;;25.50;99.90;;;;;;5073945;28;20516;-52
2023/10/25 11:02:46;;;;;;;3.00;0.85;;;25.50;99.90;;;;;;5073699;28;20051;-52
2023/10/25 11:05:15;;;;;;;2.47;1.40;;;25.50;99.90;;;;;;5073771;28;20067;-52
2023/10/25 11:07:42;;;;;;;2.97;1.10;;;25.60;99.90;;;;;;5073752;28;20227;-58
2023/10/25 11:10:09;;;;;;;3.85;1.48;;;25.60;99.90;;;;;;5073836;28;20021;-52
2023/10/25 11:12:35;;;;;;;4.03;1.48;;;25.60;99.90;;;;;;5073496;28;20074;-52
2023/10/25 11:15:05;;;;;;;2.38;1.05;;;25.60;99.90;;;;;;5073482;28;20040;-52
2023/10/25 11:17:31;;;;;;;2.10;1.33;;;25.60;99.90;;;;;;5073675;28;20028;-52
2023/10/25 11:19:57;;;;;;;2.28;0.82;;;25.60;99.90;;;;;;5059658;28;20426;-51
2023/10/25 11:22:23;;;;;;;2.90;0.85;;;25.70;99.90;;;;;;5073382;28;20024;-52
2023/10/25 11:24:51;;;;;;;3.17;0.70;;;25.60;99.90;;;;;;5073494;28;20028;-52
2023/10/25 11:27:17;;;;;;;1.98;0.90;;;25.70;99.90;;;;;;5073689;28;20020;-52
2023/10/25 11:29:43;;;;;;;2.20;1.10;;;25.70;99.90;;;;;;5073201;28;20555;-52
2023/10/25 11:32:14;;;;;;;3.42;1.08;;;25.70;99.90;;;;;;5073462;28;20020;-52
2023/10/25 11:34:43;;;;;;;2.25;1.00;;;25.70;99.90;;;;;;5073114;28;20043;-52
2023/10/25 11:37:12;;;;;;;3.35;1.17;;;25.70;99.90;;;;;;5073210;28;20047;-52
2023/10/25 11:40:01;;;;;;;5.53;1.58;;;25.70;99.90;;;;;;5072961;28;20111;-52
2023/10/25 11:42:32;;;;;;;2.58;1.08;;;25.70;99.90;;;;;;5073119;28;20363;-52
2023/10/25 11:45:04;;;;;;;2.80;1.02;;;25.70;99.90;;;;;;5073099;28;20037;-52
2023/10/25 11:47:34;;;;;;;4.97;1.35;;;25.70;99.90;;;;;;5072864;28;20017;-52
2023/10/25 11:50:01;;;;;;;3.95;1.10;;;25.70;99.90;;;;;;5073011;28;20021;-52
2023/10/25 11:52:28;;;;;;;3.50;1.38;;;25.70;99.90;;;;;;5073135;28;20103;-52
2023/10/25 11:54:59;;;;;;;3.67;1.67;;;25.70;99.90;;;;;;5073361;28;20085;-52
2023/10/25 11:57:27;;;;;;;2.13;1.20;;;25.70;99.90;;;;;;5073083;28;20021;-52
2023/10/25 11:59:53;;;;;;;2.35;1.23;;;25.70;99.90;;;;;;5073210;28;20024;-52
2023/10/25 12:02:21;;;;;;;3.70;1.55;;;25.70;99.90;;;;;;5073096;28;20114;-52
2023/10/25 12:04:50;;;;;;;3.35;1.60;;;25.70;99.90;;;;;;5073314;28;20487;-53
2023/10/25 12:07:16;;;;;;;2.67;1.40;;;25.70;99.90;;;;;;5073117;28;20373;-52
2023/10/25 12:09:44;;;;;;;3.95;1.42;;;25.70;99.90;;;;;;5055070;28;20170;-52
2023/10/25 12:12:10;;;;;;;;;;;25.70;99.90;;;;;;5073357;28;20024;-52
2023/10/25 12:14:36;;;;;;;2.88;1.30;;;25.70;99.90;;;;;;5072720;28;20279;-52
2023/10/25 12:17:03;;;;;;;2.92;1.40;;;25.70;99.90;;;;;;5055011;28;20035;-51
2023/10/25 12:19:29;;;;;;;5.85;2.45;;;25.70;99.90;;;;;;5073032;28;20435;-52
2023/10/25 12:21:57;;;;;;;6.43;1.50;;;25.70;99.90;;;;;;5072727;28;20036;-51
2023/10/25 12:24:24;;;;;;;4.88;1.80;;;25.70;99.90;;;;;;5072651;28;20372;-52
2023/10/25 12:26:50;;;;;;;6.85;1.90;;;25.70;99.90;;;;;;5072959;28;20480;-51
2023/10/25 12:29:15;;;;;;;4.90;2.05;;;25.70;99.90;;;;;;5072630;28;20079;-52
2023/10/25 12:31:41;;;;;;;4.38;2.10;;;25.70;99.90;;;;;;5072370;28;20472;-51
2023/10/25 12:34:07;;;;;;;4.88;2.80;;;25.70;99.90;;;;;;5072250;28;20135;-51
2023/10/25 12:36:32;;;;;;;9.02;2.85;;;25.70;99.90;;;;;;5072432;28;20016;-51
2023/10/25 12:38:58;;;;;;;4.30;2.20;;;25.70;99.90;;;;;;5072059;28;20031;-53
2023/10/25 12:41:24;;;;;;;4.63;1.98;;;25.70;99.90;;;;;;5072091;28;20091;-53
2023/10/25 12:43:50;;;;;;;3.10;2.15;;;25.70;99.90;;;;;;5071741;28;20021;-52
2023/10/25 12:46:16;;;;;;;8.05;3.05;;;25.70;99.90;;;;;;5071057;28;20453;-52
2023/10/25 12:48:42;;;;;;;7.85;2.60;;;25.70;99.90;;;;;;5070723;28;20390;-53